createdAt,value
2023-05-06T00:00:40.048Z,9
2023-05-06T00:01:40.025Z,9
2023-05-06T00:02:40.080Z,9
2023-05-06T00:03:40.149Z,9
2023-05-06T00:04:40.075Z,9
2023-05-06T00:05:40.039Z,9
2023-05-06T00:06:40.027Z,9
2023-05-06T00:07:40.317Z,9
2023-05-06T00:08:42.879Z,9
2023-05-06T00:09:46.321Z,9
2023-05-06T00:10:40.035Z,9
2023-05-06T00:11:40.029Z,9
2023-05-06T00:12:40.075Z,9
2023-05-06T00:13:40.025Z,9
2023-05-06T00:14:40.032Z,9
2023-05-06T00:15:40.040Z,9
2023-05-06T00:16:40.117Z,9
2023-05-06T00:17:40.039Z,9
2023-05-06T00:18:40.027Z,9
2023-05-06T00:19:40.035Z,9
2023-05-06T00:20:40.033Z,9
2023-05-06T00:21:40.023Z,9
2023-05-06T00:22:40.030Z,9
2023-05-06T00:23:40.028Z,9
2023-05-06T00:24:40.028Z,9
2023-05-06T00:25:40.017Z,9
2023-05-06T00:26:40.022Z,9
2023-05-06T00:27:40.017Z,9
2023-05-06T00:28:40.437Z,8.9
2023-05-06T00:29:43.366Z,8.9
2023-05-06T00:30:45.859Z,9
2023-05-06T00:31:40.061Z,8.9
2023-05-06T00:32:40.129Z,8.9
2023-05-06T00:33:40.194Z,8.9
2023-05-06T00:34:40.238Z,8.9
2023-05-06T00:35:40.353Z,8.9
2023-05-06T00:36:40.372Z,8.9
2023-05-06T00:37:40.038Z,8.9
2023-05-06T00:38:40.032Z,8.9
2023-05-06T00:39:40.104Z,8.9
2023-05-06T00:40:40.021Z,8.9
2023-05-06T00:41:40.030Z,8.9
2023-05-06T00:42:40.037Z,8.9
2023-05-06T00:43:40.023Z,8.9
2023-05-06T00:44:40.055Z,8.9
2023-05-06T00:45:40.046Z,8.9
2023-05-06T00:46:40.028Z,8.9
2023-05-06T00:47:40.036Z,8.9
2023-05-06T00:48:40.058Z,9
2023-05-06T00:49:40.505Z,8.9
2023-05-06T00:50:43.279Z,8.9
2023-05-06T00:51:45.978Z,9
2023-05-06T00:52:40.040Z,9
2023-05-06T00:53:40.025Z,9
2023-05-06T00:54:40.050Z,9
2023-05-06T00:55:40.028Z,9
2023-05-06T00:56:40.046Z,9
2023-05-06T00:57:40.039Z,9
2023-05-06T00:58:40.026Z,9
2023-05-06T00:59:40.051Z,9
2023-05-06T01:00:40.231Z,9
2023-05-06T01:01:40.081Z,8.9
2023-05-06T01:02:46.811Z,9
2023-05-06T01:03:40.137Z,9
2023-05-06T01:04:40.046Z,9
2023-05-06T01:05:40.062Z,8.9
2023-05-06T01:06:40.032Z,9
2023-05-06T01:07:40.029Z,8.9
2023-05-06T01:08:40.027Z,8.9
2023-05-06T01:09:40.038Z,8.9
2023-05-06T01:10:40.586Z,8.9
2023-05-06T01:11:43.215Z,8.9
2023-05-06T01:12:46.108Z,8.9
2023-05-06T01:13:40.035Z,8.9
2023-05-06T01:14:40.038Z,8.9
2023-05-06T01:15:40.049Z,8.8
2023-05-06T01:16:40.094Z,8.8
2023-05-06T01:17:40.060Z,8.8
2023-05-06T01:18:40.035Z,8.8
2023-05-06T01:19:40.032Z,8.8
2023-05-06T01:20:40.062Z,8.8
2023-05-06T01:21:40.028Z,8.8
2023-05-06T01:22:40.040Z,8.8
2023-05-06T01:23:40.029Z,8.8
2023-05-06T01:24:40.040Z,8.8
2023-05-06T01:25:40.062Z,8.8
2023-05-06T01:26:40.039Z,8.9
2023-05-06T01:27:40.044Z,8.9
2023-05-06T01:28:40.058Z,8.9
2023-05-06T01:29:40.038Z,8.9
2023-05-06T01:30:40.053Z,8.9
2023-05-06T01:31:40.094Z,8.9
2023-05-06T01:32:40.882Z,8.9
2023-05-06T01:33:44.128Z,9
2023-05-06T01:34:46.365Z,8.9
2023-05-06T01:35:40.055Z,9
2023-05-06T01:36:40.035Z,9
2023-05-06T01:37:40.044Z,9
2023-05-06T01:38:40.035Z,9
2023-05-06T01:39:40.034Z,9
2023-05-06T01:40:40.054Z,9
2023-05-06T01:41:40.031Z,9
2023-05-06T01:42:40.045Z,8.9
2023-05-06T01:43:40.023Z,8.9
2023-05-06T01:44:40.040Z,8.9
2023-05-06T01:45:40.051Z,8.9
2023-05-06T01:46:40.117Z,8.9
2023-05-06T01:47:40.050Z,8.8
2023-05-06T01:48:40.032Z,8.8
2023-05-06T01:49:40.046Z,8.8
2023-05-06T01:50:40.026Z,8.8
2023-05-06T01:51:40.033Z,8.8
2023-05-06T01:52:40.043Z,8.7
2023-05-06T01:53:41.137Z,8.7
2023-05-06T01:54:44.175Z,8.7
2023-05-06T01:55:46.963Z,8.7
2023-05-06T01:56:40.024Z,8.7
2023-05-06T01:57:40.036Z,8.6
2023-05-06T01:58:40.042Z,8.6
2023-05-06T01:59:40.038Z,8.6
2023-05-06T02:00:40.034Z,8.6
2023-05-06T02:01:40.082Z,8.5
2023-05-06T02:02:40.133Z,8.5
2023-05-06T02:03:40.109Z,8.5
2023-05-06T02:04:40.068Z,8.4
2023-05-06T02:05:40.041Z,8.4
2023-05-06T02:06:40.069Z,8.4
2023-05-06T02:07:40.031Z,8.4
2023-05-06T02:08:40.055Z,8.4
2023-05-06T02:09:40.029Z,8.4
2023-05-06T02:10:40.032Z,8.4
2023-05-06T02:11:40.051Z,8.4
2023-05-06T02:12:40.060Z,8.4
2023-05-06T02:13:40.035Z,8.4
2023-05-06T02:14:41.082Z,8.4
2023-05-06T02:15:44.349Z,8.4
2023-05-06T02:16:46.607Z,8.4
2023-05-06T02:17:40.071Z,8.4
2023-05-06T02:18:40.048Z,8.4
2023-05-06T02:19:40.027Z,8.4
2023-05-06T02:20:40.038Z,8.3
2023-05-06T02:21:40.037Z,8.3
2023-05-06T02:22:40.027Z,8.3
2023-05-06T02:23:40.053Z,8.3
2023-05-06T02:24:40.039Z,8.2
2023-05-06T02:25:40.037Z,8.3
2023-05-06T02:26:40.040Z,8.2
2023-05-06T02:27:40.041Z,8.2
2023-05-06T02:28:40.060Z,8.2
2023-05-06T02:29:40.050Z,8.2
2023-05-06T02:30:40.031Z,8.1
2023-05-06T02:31:40.056Z,8.1
2023-05-06T02:32:40.080Z,8.1
2023-05-06T02:33:40.046Z,8
2023-05-06T02:34:40.043Z,8
2023-05-06T02:35:41.171Z,8
2023-05-06T02:36:44.404Z,8
2023-05-06T02:37:46.649Z,7.9
2023-05-06T02:38:40.035Z,7.9
2023-05-06T02:39:40.137Z,7.9
2023-05-06T02:40:40.039Z,7.9
2023-05-06T02:41:40.035Z,7.9
2023-05-06T02:42:40.114Z,7.8
2023-05-06T02:43:40.036Z,7.8
2023-05-06T02:44:40.026Z,7.8
2023-05-06T02:45:40.062Z,7.8
2023-05-06T02:46:40.042Z,7.8
2023-05-06T02:47:40.052Z,7.8
2023-05-06T02:48:40.028Z,7.8
2023-05-06T02:49:40.046Z,7.8
2023-05-06T02:50:40.040Z,7.9
2023-05-06T02:51:40.047Z,7.9
2023-05-06T02:52:40.058Z,7.9
2023-05-06T02:53:40.034Z,7.9
2023-05-06T02:54:40.051Z,7.9
2023-05-06T02:55:40.063Z,7.9
2023-05-06T02:56:41.183Z,7.9
2023-05-06T02:57:44.425Z,8
2023-05-06T02:58:47.364Z,8
2023-05-06T02:59:40.100Z,8
2023-05-06T03:00:40.334Z,8
2023-05-06T03:01:40.092Z,8
2023-05-06T03:02:40.078Z,8
2023-05-06T03:03:40.040Z,8
2023-05-06T03:04:40.313Z,8
2023-05-06T03:05:40.048Z,8
2023-05-06T03:06:40.032Z,8
2023-05-06T03:07:40.051Z,8
2023-05-06T03:08:40.023Z,7.9
2023-05-06T03:09:40.039Z,7.9
2023-05-06T03:10:40.038Z,7.9
2023-05-06T03:11:40.030Z,7.9
2023-05-06T03:12:40.105Z,7.9
2023-05-06T03:13:40.032Z,7.9
2023-05-06T03:14:40.037Z,7.9
2023-05-06T03:15:40.035Z,8
2023-05-06T03:16:40.039Z,8
2023-05-06T03:17:41.498Z,8
2023-05-06T03:18:44.562Z,8
2023-05-06T03:19:46.857Z,8
2023-05-06T03:20:40.030Z,8
2023-05-06T03:21:40.206Z,8
2023-05-06T03:22:40.036Z,8
2023-05-06T03:23:40.031Z,8
2023-05-06T03:24:40.026Z,8
2023-05-06T03:25:40.028Z,8
2023-05-06T03:26:40.053Z,8
2023-05-06T03:27:40.038Z,8
2023-05-06T03:28:40.025Z,8
2023-05-06T03:29:40.179Z,8
2023-05-06T03:30:40.121Z,8
2023-05-06T03:31:40.303Z,8
2023-05-06T03:32:40.271Z,8
2023-05-06T03:33:40.242Z,7.9
2023-05-06T03:34:40.276Z,7.9
2023-05-06T03:35:40.053Z,7.9
2023-05-06T03:36:40.054Z,7.9
2023-05-06T03:37:40.073Z,7.9
2023-05-06T03:38:41.593Z,7.9
2023-05-06T03:39:44.736Z,7.9
2023-05-06T03:40:47.004Z,7.9
2023-05-06T03:41:40.072Z,7.8
2023-05-06T03:42:40.032Z,7.8
2023-05-06T03:43:40.028Z,7.8
2023-05-06T03:44:40.046Z,7.8
2023-05-06T03:45:40.046Z,7.8
2023-05-06T03:46:40.118Z,7.8
2023-05-06T03:47:40.052Z,7.8
2023-05-06T03:48:40.049Z,7.8
2023-05-06T03:49:40.029Z,7.8
2023-05-06T03:50:40.049Z,7.8
2023-05-06T03:51:40.054Z,7.8
2023-05-06T03:52:40.207Z,7.8
2023-05-06T03:53:40.030Z,7.8
2023-05-06T03:54:40.031Z,7.8
2023-05-06T03:55:40.032Z,7.8
2023-05-06T03:56:40.063Z,7.8
2023-05-06T03:57:40.050Z,7.8
2023-05-06T03:58:40.043Z,7.8
2023-05-06T03:59:41.718Z,7.8
2023-05-06T04:00:44.836Z,7.8
2023-05-06T04:01:47.264Z,7.8
2023-05-06T04:02:40.069Z,7.8
2023-05-06T04:03:40.110Z,7.9
2023-05-06T04:04:40.041Z,7.9
2023-05-06T04:05:40.046Z,7.9
2023-05-06T04:06:40.033Z,7.9
2023-05-06T04:07:40.039Z,8
2023-05-06T04:08:40.021Z,8
2023-05-06T04:09:40.031Z,8
2023-05-06T04:10:40.042Z,8
2023-05-06T04:11:40.022Z,8.1
2023-05-06T04:12:40.034Z,8.1
2023-05-06T04:13:40.051Z,8.1
2023-05-06T04:14:40.026Z,8.2
2023-05-06T04:15:40.042Z,8.2
2023-05-06T04:16:40.100Z,8.2
2023-05-06T04:17:40.055Z,8.3
2023-05-06T04:18:40.040Z,8.3
2023-05-06T04:19:40.034Z,8.4
2023-05-06T04:20:41.788Z,8.4
2023-05-06T04:21:44.824Z,8.4
2023-05-06T04:22:47.808Z,8.4
2023-05-06T04:23:40.030Z,8.4
2023-05-06T04:24:40.036Z,8.5
2023-05-06T04:25:40.032Z,8.5
2023-05-06T04:26:40.030Z,8.6
2023-05-06T04:27:40.022Z,8.6
2023-05-06T04:28:40.021Z,8.6
2023-05-06T04:29:40.031Z,8.7
2023-05-06T04:30:40.025Z,8.7
2023-05-06T04:31:40.061Z,8.8
2023-05-06T04:32:40.039Z,8.8
2023-05-06T04:33:40.034Z,8.8
2023-05-06T04:34:40.030Z,8.9
2023-05-06T04:35:40.034Z,8.9
2023-05-06T04:36:40.749Z,9
2023-05-06T04:37:40.030Z,9
2023-05-06T04:38:40.037Z,9
2023-05-06T04:39:40.039Z,9
2023-05-06T04:40:40.026Z,9
2023-05-06T04:41:40.023Z,9.1
2023-05-06T04:42:43.173Z,9.1
2023-05-06T04:43:45.919Z,9.1
2023-05-06T04:44:40.040Z,9.1
2023-05-06T04:45:40.062Z,9.2
2023-05-06T04:46:40.048Z,9.2
2023-05-06T04:47:40.057Z,9.2
2023-05-06T04:48:40.025Z,9.3
2023-05-06T04:49:40.033Z,9.4
2023-05-06T04:50:40.031Z,9.4
2023-05-06T04:51:40.051Z,9.5
2023-05-06T04:52:40.036Z,9.6
2023-05-06T04:53:40.034Z,9.6
2023-05-06T04:54:40.024Z,9.7
2023-05-06T04:55:40.037Z,9.7
2023-05-06T04:56:40.052Z,9.7
2023-05-06T04:57:40.035Z,9.6
2023-05-06T04:58:40.032Z,9.6
2023-05-06T04:59:40.032Z,9.6
2023-05-06T05:00:40.031Z,9.6
2023-05-06T05:01:40.063Z,9.6
2023-05-06T05:02:40.056Z,9.6
2023-05-06T05:03:43.273Z,9.6
2023-05-06T05:04:45.990Z,9.6
2023-05-06T05:05:40.072Z,9.6
2023-05-06T05:06:40.038Z,9.6
2023-05-06T05:07:40.032Z,9.6
2023-05-06T05:08:40.031Z,9.6
2023-05-06T05:09:40.026Z,9.6
2023-05-06T05:10:40.037Z,9.6
2023-05-06T05:11:40.035Z,9.6
2023-05-06T05:12:40.033Z,9.6
2023-05-06T05:13:40.039Z,9.6
2023-05-06T05:14:40.019Z,9.6
2023-05-06T05:15:40.039Z,9.6
2023-05-06T05:16:40.113Z,9.6
2023-05-06T05:17:40.049Z,9.5
2023-05-06T05:18:40.056Z,9.6
2023-05-06T05:20:40.040Z,9.6
2023-05-06T05:21:40.049Z,9.6
2023-05-06T05:22:40.026Z,9.6
2023-05-06T05:23:40.084Z,9.6
2023-05-06T05:24:42.740Z,9.6
2023-05-06T05:25:46.050Z,9.6
2023-05-06T05:26:40.036Z,9.6
2023-05-06T05:27:40.033Z,9.6
2023-05-06T05:28:40.052Z,9.7
2023-05-06T05:29:40.029Z,9.7
2023-05-06T05:30:40.051Z,9.7
2023-05-06T05:31:40.084Z,9.7
2023-05-06T05:32:40.091Z,9.7
2023-05-06T05:33:40.172Z,9.8
2023-05-06T05:34:40.031Z,9.8
2023-05-06T05:35:40.031Z,9.8
2023-05-06T05:36:40.040Z,9.8
2023-05-06T05:37:40.036Z,9.8
2023-05-06T05:38:40.052Z,9.8
2023-05-06T05:39:40.074Z,9.8
2023-05-06T05:40:40.034Z,9.9
2023-05-06T05:41:40.035Z,9.9
2023-05-06T05:42:40.029Z,9.9
2023-05-06T05:43:40.050Z,9.9
2023-05-06T05:44:40.123Z,9.9
2023-05-06T05:45:42.699Z,9.9
2023-05-06T05:46:46.200Z,10
2023-05-06T05:47:40.043Z,10
2023-05-06T05:48:40.080Z,10
2023-05-06T05:49:40.031Z,10
2023-05-06T05:50:40.038Z,10
2023-05-06T05:51:40.057Z,10.1
2023-05-06T05:52:40.043Z,10.1
2023-05-06T05:53:40.046Z,10.1
2023-05-06T05:54:40.038Z,10.1
2023-05-06T05:55:40.031Z,10.2
2023-05-06T05:56:40.042Z,10.2
2023-05-06T05:57:40.040Z,10.2
2023-05-06T05:58:40.038Z,10.2
2023-05-06T05:59:40.056Z,10.3
2023-05-06T06:00:40.030Z,10.3
2023-05-06T06:01:40.040Z,10.3
2023-05-06T06:02:40.104Z,10.3
2023-05-06T06:03:40.185Z,10.4
2023-05-06T06:04:40.079Z,10.4
2023-05-06T06:05:40.278Z,10.4
2023-05-06T06:06:42.894Z,10.4
2023-05-06T06:07:46.265Z,10.4
2023-05-06T06:08:40.030Z,10.5
2023-05-06T06:09:40.056Z,10.5
2023-05-06T06:10:40.030Z,10.5
2023-05-06T06:11:40.033Z,10.5
2023-05-06T06:12:40.057Z,10.6
2023-05-06T06:13:40.034Z,10.6
2023-05-06T06:14:40.053Z,10.6
2023-05-06T06:15:40.031Z,10.6
2023-05-06T06:16:40.064Z,10.6
2023-05-06T06:17:40.048Z,10.6
2023-05-06T06:18:40.034Z,10.6
2023-05-06T06:19:40.053Z,10.7
2023-05-06T06:20:40.026Z,10.7
2023-05-06T06:21:40.031Z,10.7
2023-05-06T06:22:40.041Z,10.7
2023-05-06T06:23:40.034Z,10.8
2023-05-06T06:24:40.052Z,10.8
2023-05-06T06:25:40.034Z,10.8
2023-05-06T06:26:40.473Z,10.8
2023-05-06T06:27:42.939Z,10.8
2023-05-06T06:28:46.348Z,10.9
2023-05-06T06:29:40.048Z,10.9
2023-05-06T06:30:40.026Z,11
2023-05-06T06:31:40.722Z,11
2023-05-06T06:32:40.052Z,11
2023-05-06T06:33:40.032Z,11.1
2023-05-06T06:34:40.036Z,11.1
2023-05-06T06:35:40.052Z,11.1
2023-05-06T06:36:40.028Z,11.1
2023-05-06T06:37:40.074Z,11.2
2023-05-06T06:38:40.041Z,11.2
2023-05-06T06:39:40.064Z,11.3
2023-05-06T06:40:40.038Z,11.3
2023-05-06T06:41:40.026Z,11.4
2023-05-06T06:42:40.036Z,11.4
2023-05-06T06:43:40.034Z,11.5
2023-05-06T06:44:40.043Z,11.5
2023-05-06T06:45:40.118Z,11.6
2023-05-06T06:46:40.030Z,11.6
2023-05-06T06:47:40.558Z,11.6
2023-05-06T06:48:43.098Z,11.6
2023-05-06T06:49:46.505Z,11.7
2023-05-06T06:50:40.029Z,11.7
2023-05-06T06:51:40.040Z,11.7
2023-05-06T06:52:40.025Z,11.7
2023-05-06T06:53:40.028Z,11.7
2023-05-06T06:54:40.036Z,11.8
2023-05-06T06:55:40.044Z,11.8
2023-05-06T06:56:40.023Z,11.9
2023-05-06T06:57:40.024Z,11.9
2023-05-06T06:58:40.211Z,12
2023-05-06T06:59:40.210Z,12
2023-05-06T07:00:40.044Z,12
2023-05-06T07:01:40.051Z,12.1
2023-05-06T07:02:40.064Z,12.1
2023-05-06T07:03:40.036Z,12.2
2023-05-06T07:04:40.071Z,12.2
2023-05-06T07:05:40.046Z,12.2
2023-05-06T07:07:40.025Z,12.3
2023-05-06T07:08:40.609Z,12.3
2023-05-06T07:09:43.190Z,12.4
2023-05-06T07:10:46.605Z,12.4
2023-05-06T07:11:40.046Z,12.5
2023-05-06T07:12:40.082Z,12.5
2023-05-06T07:13:40.022Z,12.6
2023-05-06T07:14:40.031Z,12.6
2023-05-06T07:15:40.039Z,12.7
2023-05-06T07:16:40.076Z,12.7
2023-05-06T07:17:40.043Z,12.7
2023-05-06T07:18:40.037Z,12.8
2023-05-06T07:19:40.209Z,12.8
2023-05-06T07:20:40.074Z,12.9
2023-05-06T07:21:40.029Z,12.9
2023-05-06T07:22:40.032Z,13
2023-05-06T07:23:40.027Z,13
2023-05-06T07:24:40.036Z,13.1
2023-05-06T07:25:40.040Z,13.1
2023-05-06T07:27:40.034Z,13.1
2023-05-06T07:28:40.046Z,13.2
2023-05-06T07:29:40.702Z,13.2
2023-05-06T07:30:43.323Z,13.2
2023-05-06T07:31:46.118Z,13.2
2023-05-06T07:32:40.055Z,13.3
2023-05-06T07:33:40.053Z,13.3
2023-05-06T07:34:40.038Z,13.4
2023-05-06T07:35:40.031Z,13.4
2023-05-06T07:36:40.286Z,13.5
2023-05-06T07:37:40.043Z,13.5
2023-05-06T07:38:40.098Z,13.6
2023-05-06T07:39:40.026Z,13.6
2023-05-06T07:40:40.027Z,13.6
2023-05-06T07:41:40.022Z,13.7
2023-05-06T07:42:42.236Z,13.7
2023-05-06T07:43:40.026Z,13.7
2023-05-06T07:44:40.053Z,13.8
2023-05-06T07:45:40.038Z,13.8
2023-05-06T07:46:40.126Z,13.8
2023-05-06T07:47:40.259Z,13.9
2023-05-06T07:48:40.027Z,13.9
2023-05-06T07:49:40.027Z,13.9
2023-05-06T07:50:40.201Z,14
2023-05-06T07:51:43.392Z,14.1
2023-05-06T07:52:46.286Z,14.1
2023-05-06T07:53:40.041Z,14.2
2023-05-06T07:54:40.033Z,14.2
2023-05-06T07:55:40.026Z,14.3
2023-05-06T07:56:40.062Z,14.3
2023-05-06T07:57:40.072Z,14.4
2023-05-06T07:58:40.175Z,14.5
2023-05-06T07:59:40.032Z,14.5
2023-05-06T08:00:40.044Z,14.6
2023-05-06T08:01:40.051Z,14.6
2023-05-06T08:02:40.233Z,14.7
2023-05-06T08:03:40.387Z,14.7
2023-05-06T08:04:40.088Z,14.8
2023-05-06T08:05:40.127Z,14.8
2023-05-06T08:06:40.253Z,14.9
2023-05-06T08:07:40.194Z,15
2023-05-06T08:08:40.117Z,15
2023-05-06T08:09:40.320Z,15
2023-05-06T08:10:40.146Z,15.1
2023-05-06T08:11:40.794Z,15.1
2023-05-06T08:12:43.510Z,15.2
2023-05-06T08:13:46.313Z,15.2
2023-05-06T08:14:40.273Z,15.3
2023-05-06T08:15:40.318Z,15.3
2023-05-06T08:16:40.437Z,15.4
2023-05-06T08:17:40.072Z,15.4
2023-05-06T08:18:40.046Z,15.4
2023-05-06T08:19:40.029Z,15.5
2023-05-06T08:20:40.031Z,15.5
2023-05-06T08:21:40.039Z,15.6
2023-05-06T08:22:40.026Z,15.6
2023-05-06T08:23:40.044Z,15.7
2023-05-06T08:24:40.035Z,15.7
2023-05-06T08:25:40.035Z,15.8
2023-05-06T08:26:40.039Z,15.8
2023-05-06T08:27:40.039Z,15.8
2023-05-06T08:28:40.026Z,15.9
2023-05-06T08:29:40.050Z,15.9
2023-05-06T08:30:40.031Z,16
2023-05-06T08:31:40.054Z,16.1
2023-05-06T08:32:40.061Z,16.1
2023-05-06T08:33:41.283Z,16.1
2023-05-06T08:34:44.288Z,16.2
2023-05-06T08:35:46.663Z,16.2
2023-05-06T08:36:40.031Z,16.2
2023-05-06T08:37:40.139Z,16.3
2023-05-06T08:38:40.040Z,16.3
2023-05-06T08:39:40.047Z,16.3
2023-05-06T08:40:40.036Z,16.3
2023-05-06T08:41:40.036Z,16.3
2023-05-06T08:42:40.080Z,16.4
2023-05-06T08:43:40.041Z,16.4
2023-05-06T08:44:40.034Z,16.4
2023-05-06T08:45:40.127Z,16.5
2023-05-06T08:46:40.039Z,16.6
2023-05-06T08:47:40.063Z,16.6
2023-05-06T08:48:40.031Z,16.6
2023-05-06T08:49:40.040Z,16.7
2023-05-06T08:50:40.036Z,16.7
2023-05-06T08:51:40.031Z,16.8
2023-05-06T08:52:40.031Z,16.8
2023-05-06T08:53:40.031Z,16.9
2023-05-06T08:54:41.422Z,16.9
2023-05-06T08:55:44.414Z,16.9
2023-05-06T08:56:47.364Z,16.9
2023-05-06T08:57:40.046Z,16.9
2023-05-06T08:58:40.199Z,16.9
2023-05-06T08:59:40.032Z,16.9
2023-05-06T09:00:40.026Z,16.9
2023-05-06T09:01:40.113Z,16.9
2023-05-06T09:02:42.776Z,16.9
2023-05-06T09:03:40.054Z,17
2023-05-06T09:04:40.039Z,17
2023-05-06T09:05:40.038Z,17
2023-05-06T09:06:40.036Z,17
2023-05-06T09:07:40.065Z,17.2
2023-05-06T09:08:40.037Z,17.2
2023-05-06T09:09:40.033Z,17.2
2023-05-06T09:10:40.037Z,17.3
2023-05-06T09:11:40.049Z,17.3
2023-05-06T09:12:40.082Z,17.3
2023-05-06T09:13:40.032Z,17.4
2023-05-06T09:14:40.034Z,17.4
2023-05-06T09:15:41.553Z,17.4
2023-05-06T09:16:44.721Z,17.5
2023-05-06T09:17:46.976Z,17.5
2023-05-06T09:18:40.033Z,17.6
2023-05-06T09:19:40.036Z,17.6
2023-05-06T09:20:40.033Z,17.7
2023-05-06T09:21:40.033Z,17.7
2023-05-06T09:22:40.054Z,17.8
2023-05-06T09:24:40.032Z,17.8
2023-05-06T09:25:40.042Z,17.9
2023-05-06T09:26:40.049Z,17.9
2023-05-06T09:27:40.033Z,18
2023-05-06T09:28:40.036Z,18
2023-05-06T09:29:40.098Z,18
2023-05-06T09:30:40.048Z,18.1
2023-05-06T09:31:40.060Z,18.1
2023-05-06T09:32:40.748Z,18.2
2023-05-06T09:33:40.039Z,18.2
2023-05-06T09:34:40.035Z,18.3
2023-05-06T09:35:40.048Z,18.3
2023-05-06T09:36:41.198Z,18.3
2023-05-06T09:37:44.903Z,18.3
2023-05-06T09:38:47.667Z,18.4
2023-05-06T09:39:40.035Z,18.4
2023-05-06T09:40:40.058Z,18.5
2023-05-06T09:41:40.039Z,18.5
2023-05-06T09:42:40.043Z,18.5
2023-05-06T09:43:40.054Z,18.7
2023-05-06T09:44:40.029Z,18.7
2023-05-06T09:45:40.052Z,18.7
2023-05-06T09:46:40.078Z,18.7
2023-05-06T09:47:40.051Z,18.8
2023-05-06T09:48:40.038Z,18.8
2023-05-06T09:49:40.049Z,18.8
2023-05-06T09:50:40.232Z,18.9
2023-05-06T09:51:40.031Z,18.9
2023-05-06T09:52:40.041Z,18.9
2023-05-06T09:53:40.043Z,18.9
2023-05-06T09:54:40.034Z,18.9
2023-05-06T09:55:40.036Z,18.9
2023-05-06T09:56:40.042Z,18.9
2023-05-06T09:57:41.859Z,18.9
2023-05-06T09:58:44.764Z,18.9
2023-05-06T09:59:47.154Z,18.9
2023-05-06T10:00:40.057Z,18.9
2023-05-06T10:01:40.056Z,18.9
2023-05-06T10:02:40.129Z,18.9
2023-05-06T10:03:40.211Z,19
2023-05-06T10:04:40.232Z,19
2023-05-06T10:05:40.060Z,19
2023-05-06T10:06:40.036Z,19
2023-05-06T10:07:40.057Z,19.1
2023-05-06T10:08:40.034Z,19.1
2023-05-06T10:09:40.035Z,19
2023-05-06T10:10:40.059Z,19
2023-05-06T10:11:40.038Z,19
2023-05-06T10:12:40.114Z,19
2023-05-06T10:13:40.035Z,19.1
2023-05-06T10:14:40.046Z,19.1
2023-05-06T10:15:40.060Z,19.2
2023-05-06T10:16:40.152Z,19.2
2023-05-06T10:17:40.147Z,19.2
2023-05-06T10:18:41.878Z,19.2
2023-05-06T10:19:44.898Z,19.3
2023-05-06T10:20:47.291Z,19.3
2023-05-06T10:21:40.038Z,19.3
2023-05-06T10:22:40.038Z,19.2
2023-05-06T10:23:40.034Z,19.2
2023-05-06T10:24:40.045Z,19.2
2023-05-06T10:25:40.040Z,19.3
2023-05-06T10:26:40.036Z,19.3
2023-05-06T10:27:40.055Z,19.3
2023-05-06T10:28:40.098Z,19.3
2023-05-06T10:29:40.031Z,19.3
2023-05-06T10:30:40.030Z,19.4
2023-05-06T10:31:40.032Z,19.4
2023-05-06T10:32:40.051Z,19.4
2023-05-06T10:33:42.174Z,19.3
2023-05-06T10:34:40.024Z,19.4
2023-05-06T10:35:40.036Z,19.4
2023-05-06T10:36:40.030Z,19.5
2023-05-06T10:37:40.027Z,19.5
2023-05-06T10:38:40.032Z,19.5
2023-05-06T10:39:42.268Z,19.5
2023-05-06T10:40:44.863Z,19.5
2023-05-06T10:42:40.039Z,19.5
2023-05-06T10:43:40.034Z,19.7
2023-05-06T10:44:40.059Z,19.7
2023-05-06T10:45:40.044Z,19.7
2023-05-06T10:46:40.032Z,19.7
2023-05-06T10:47:40.050Z,19.7
2023-05-06T10:48:40.029Z,19.8
2023-05-06T10:49:40.033Z,19.7
2023-05-06T10:50:40.032Z,19.7
2023-05-06T10:51:40.023Z,19.7
2023-05-06T10:52:40.047Z,19.5
2023-05-06T10:53:40.023Z,19.5
2023-05-06T10:54:40.027Z,19.4
2023-05-06T10:55:40.037Z,19.4
2023-05-06T10:56:40.044Z,19.3
2023-05-06T10:57:40.055Z,19.3
2023-05-06T10:58:40.042Z,19.2
2023-05-06T10:59:40.028Z,19.2
2023-05-06T11:00:41.121Z,19.2
2023-05-06T11:01:44.512Z,19.2
2023-05-06T11:02:40.110Z,19.2
2023-05-06T11:03:40.084Z,19.3
2023-05-06T11:04:40.220Z,19.3
2023-05-06T11:05:40.031Z,19.4
2023-05-06T11:06:40.048Z,19.4
2023-05-06T11:07:40.023Z,19.4
2023-05-06T11:08:40.029Z,19.4
2023-05-06T11:09:40.033Z,19.4
2023-05-06T11:10:40.036Z,19.5
2023-05-06T11:11:40.048Z,19.7
2023-05-06T11:12:40.089Z,19.7
2023-05-06T11:13:40.036Z,19.7
2023-05-06T11:14:40.032Z,19.7
2023-05-06T11:15:40.060Z,19.8
2023-05-06T11:16:40.061Z,19.8
2023-05-06T11:17:40.082Z,19.8
2023-05-06T11:18:40.036Z,19.8
2023-05-06T11:19:40.025Z,19.8
2023-05-06T11:20:40.025Z,19.8
2023-05-06T11:21:42.244Z,19.8
2023-05-06T11:22:45.026Z,19.9
2023-05-06T11:23:40.026Z,19.9
2023-05-06T11:24:40.030Z,19.9
2023-05-06T11:25:40.039Z,20
2023-05-06T11:26:40.031Z,20
2023-05-06T11:27:40.087Z,20
2023-05-06T11:28:40.033Z,19.9
2023-05-06T11:29:40.050Z,19.9
2023-05-06T11:30:40.050Z,19.9
2023-05-06T11:31:40.026Z,19.9
2023-05-06T11:32:40.104Z,19.8
2023-05-06T11:33:40.020Z,19.9
2023-05-06T11:34:40.040Z,19.9
2023-05-06T11:35:40.039Z,19.9
2023-05-06T11:36:40.037Z,19.9
2023-05-06T11:37:40.146Z,19.9
2023-05-06T11:38:40.031Z,19.9
2023-05-06T11:39:40.994Z,19.9
2023-05-06T11:40:40.025Z,20
2023-05-06T11:41:40.036Z,20.1
2023-05-06T11:42:40.070Z,20.1
2023-05-06T11:43:42.503Z,20.1
2023-05-06T11:44:45.928Z,20.2
2023-05-06T11:45:40.022Z,20.2
2023-05-06T11:46:40.073Z,20.2
2023-05-06T11:47:40.101Z,20.2
2023-05-06T11:48:40.027Z,20.2
2023-05-06T11:49:40.030Z,20.2
2023-05-06T11:50:40.033Z,20.2
2023-05-06T11:51:40.033Z,20.2
2023-05-06T11:52:40.088Z,20.2
2023-05-06T11:54:40.048Z,20.2
2023-05-06T11:55:40.034Z,20.2
2023-05-06T11:56:40.046Z,20.2
2023-05-06T11:57:40.051Z,20.2
2023-05-06T11:58:40.029Z,20.2
2023-05-06T11:59:40.026Z,20.3
2023-05-06T12:00:40.042Z,20.3
2023-05-06T12:01:40.037Z,20.5
2023-05-06T12:02:40.119Z,20.5
2023-05-06T12:03:40.464Z,20.6
2023-05-06T12:04:42.613Z,20.6
2023-05-06T12:05:46.064Z,20.7
2023-05-06T12:06:40.027Z,20.8
2023-05-06T12:07:40.053Z,20.8
2023-05-06T12:08:40.039Z,20.8
2023-05-06T12:09:40.043Z,20.9
2023-05-06T12:10:40.030Z,21
2023-05-06T12:11:40.028Z,21
2023-05-06T12:12:40.071Z,21.2
2023-05-06T12:13:40.040Z,21.3
2023-05-06T12:14:40.052Z,21.3
2023-05-06T12:15:40.032Z,21.3
2023-05-06T12:16:40.194Z,21.3
2023-05-06T12:17:40.140Z,21.3
2023-05-06T12:18:40.043Z,21.3
2023-05-06T12:19:40.032Z,21.3
2023-05-06T12:20:40.030Z,21.3
2023-05-06T12:21:40.035Z,21.2
2023-05-06T12:22:40.047Z,21.2
2023-05-06T12:23:40.082Z,21.2
2023-05-06T12:24:40.140Z,21.3
2023-05-06T12:25:42.628Z,21.3
2023-05-06T12:26:46.062Z,21.3
2023-05-06T12:27:40.045Z,21.3
2023-05-06T12:28:40.039Z,21.3
2023-05-06T12:29:40.041Z,21.3
2023-05-06T12:30:40.033Z,21.3
2023-05-06T12:31:40.076Z,21.4
2023-05-06T12:32:40.083Z,21.4
2023-05-06T12:33:40.031Z,21.4
2023-05-06T12:34:40.037Z,21.4
2023-05-06T12:35:40.035Z,21.4
2023-05-06T12:36:40.043Z,21.4
2023-05-06T12:37:40.051Z,21.5
2023-05-06T12:38:40.024Z,21.5
2023-05-06T12:39:40.046Z,21.5
2023-05-06T12:40:40.028Z,21.4
2023-05-06T12:41:40.030Z,21.4
2023-05-06T12:42:40.048Z,21.4
2023-05-06T12:43:40.037Z,21.4
2023-05-06T12:44:40.042Z,21.4
2023-05-06T12:45:40.332Z,21.4
2023-05-06T12:46:43.195Z,21.4
2023-05-06T12:47:46.209Z,21.3
2023-05-06T12:48:40.027Z,21.3
2023-05-06T12:49:40.036Z,21.3
2023-05-06T12:50:40.047Z,21.2
2023-05-06T12:51:40.048Z,21.3
2023-05-06T12:52:40.036Z,21.3
2023-05-06T12:53:40.036Z,21.3
2023-05-06T12:54:40.032Z,21.3
2023-05-06T12:55:40.044Z,21.3
2023-05-06T12:56:40.052Z,21.3
2023-05-06T12:57:40.032Z,21.3
2023-05-06T12:58:40.052Z,21.2
2023-05-06T12:59:40.035Z,21.3
2023-05-06T13:00:40.152Z,21.3
2023-05-06T13:01:40.146Z,21.2
2023-05-06T13:02:40.114Z,21.2
2023-05-06T13:03:40.066Z,21
2023-05-06T13:04:40.034Z,21.2
2023-05-06T13:05:40.028Z,21.2
2023-05-06T13:06:40.481Z,21.2
2023-05-06T13:07:42.817Z,21.2
2023-05-06T13:08:46.413Z,21.2
2023-05-06T13:09:40.031Z,21.2
2023-05-06T13:10:40.039Z,21.3
2023-05-06T13:11:40.058Z,21.3
2023-05-06T13:12:40.064Z,21.3
2023-05-06T13:13:40.030Z,21.3
2023-05-06T13:14:40.524Z,21.4
2023-05-06T13:15:40.038Z,21.4
2023-05-06T13:16:40.069Z,21.4
2023-05-06T13:17:40.097Z,21.4
2023-05-06T13:18:40.040Z,21.4
2023-05-06T13:19:40.085Z,21.4
2023-05-06T13:20:40.030Z,21.3
2023-05-06T13:21:40.075Z,21.3
2023-05-06T13:22:50.965Z,21.3
2023-05-06T13:23:40.027Z,21.2
2023-05-06T13:24:40.085Z,21.2
2023-05-06T13:25:51.941Z,21
2023-05-06T13:26:40.032Z,21
2023-05-06T13:27:40.503Z,21
2023-05-06T13:28:43.483Z,21
2023-05-06T13:29:46.483Z,21.2
2023-05-06T13:30:40.052Z,21.2
2023-05-06T13:31:40.028Z,21.2
2023-05-06T13:32:40.050Z,21.2
2023-05-06T13:33:40.098Z,21.2
2023-05-06T13:35:40.032Z,21.2
2023-05-06T13:36:40.030Z,21.2
2023-05-06T13:37:40.046Z,21.3
2023-05-06T13:38:40.162Z,21.3
2023-05-06T13:39:40.029Z,21.3
2023-05-06T13:40:40.029Z,21.3
2023-05-06T13:41:40.040Z,21.4
2023-05-06T13:42:40.045Z,21.4
2023-05-06T13:43:40.032Z,21.4
2023-05-06T13:44:40.031Z,21.4
2023-05-06T13:45:40.047Z,21.4
2023-05-06T13:46:40.080Z,21.4